sensor_id;sensor_type;location;lat;lon;timestamp;P1;durP1;ratioP1;P2;durP2;ratioP2
36709;SDS011;22694;51.040;3.684;2022-11-21T00:01:31;2.95;;;1.02;;
36709;SDS011;22694;51.040;3.684;2022-11-21T00:03:57;3.58;;;1.05;;
36709;SDS011;22694;51.040;3.684;2022-11-21T00:06:22;1.73;;;0.80;;
36709;SDS011;22694;51.040;3.684;2022-11-21T00:08:48;1.20;;;0.80;;
36709;SDS011;22694;51.040;3.684;2022-11-21T00:11:14;1.42;;;0.88;;
36709;SDS011;22694;51.040;3.684;2022-11-21T00:13:40;3.00;;;0.90;;
36709;SDS011;22694;51.040;3.684;2022-11-21T00:16:08;3.88;;;0.82;;
36709;SDS011;22694;51.040;3.684;2022-11-21T00:18:35;1.10;;;0.60;;
36709;SDS011;22694;51.040;3.684;2022-11-21T00:21:05;1.63;;;0.80;;
36709;SDS011;22694;51.040;3.684;2022-11-21T00:23:31;1.88;;;0.88;;
36709;SDS011;22694;51.040;3.684;2022-11-21T00:25:57;2.25;;;0.80;;
36709;SDS011;22694;51.040;3.684;2022-11-21T00:28:23;2.10;;;0.68;;
36709;SDS011;22694;51.040;3.684;2022-11-21T00:30:48;0.98;;;0.60;;
36709;SDS011;22694;51.040;3.684;2022-11-21T00:33:14;2.03;;;0.88;;
36709;SDS011;22694;51.040;3.684;2022-11-21T00:35:39;1.23;;;0.73;;
36709;SDS011;22694;51.040;3.684;2022-11-21T00:38:05;1.00;;;0.65;;
36709;SDS011;22694;51.040;3.684;2022-11-21T00:40:30;2.13;;;0.90;;
36709;SDS011;22694;51.040;3.684;2022-11-21T00:42:56;3.80;;;0.80;;
36709;SDS011;22694;51.040;3.684;2022-11-21T00:45:22;1.10;;;0.55;;
36709;SDS011;22694;51.040;3.684;2022-11-21T00:47:47;1.38;;;0.70;;
36709;SDS011;22694;51.040;3.684;2022-11-21T00:50:13;1.52;;;1.02;;
36709;SDS011;22694;51.040;3.684;2022-11-21T00:52:38;1.10;;;0.43;;
36709;SDS011;22694;51.040;3.684;2022-11-21T00:55:04;1.85;;;0.93;;
36709;SDS011;22694;51.040;3.684;2022-11-21T00:57:30;1.92;;;0.88;;
36709;SDS011;22694;51.040;3.684;2022-11-21T00:59:55;0.77;;;0.68;;
36709;SDS011;22694;51.040;3.684;2022-11-21T01:02:21;1.40;;;0.73;;
36709;SDS011;22694;51.040;3.684;2022-11-21T01:04:47;1.13;;;0.60;;
36709;SDS011;22694;51.040;3.684;2022-11-21T01:07:13;1.98;;;0.80;;
36709;SDS011;22694;51.040;3.684;2022-11-21T01:09:38;1.42;;;0.55;;
36709;SDS011;22694;51.040;3.684;2022-11-21T01:12:04;2.13;;;0.70;;
36709;SDS011;22694;51.040;3.684;2022-11-21T01:14:30;1.58;;;0.70;;
36709;SDS011;22694;51.040;3.684;2022-11-21T01:16:55;0.85;;;0.50;;
36709;SDS011;22694;51.040;3.684;2022-11-21T01:19:21;1.88;;;1.08;;
36709;SDS011;22694;51.040;3.684;2022-11-21T01:21:47;2.22;;;0.60;;
36709;SDS011;22694;51.040;3.684;2022-11-21T01:24:12;1.23;;;0.65;;
36709;SDS011;22694;51.040;3.684;2022-11-21T01:26:38;2.85;;;0.65;;
36709;SDS011;22694;51.040;3.684;2022-11-21T01:29:04;4.25;;;1.00;;
36709;SDS011;22694;51.040;3.684;2022-11-21T01:31:31;0.65;;;0.50;;
36709;SDS011;22694;51.040;3.684;2022-11-21T01:33:57;2.13;;;1.08;;
36709;SDS011;22694;51.040;3.684;2022-11-21T01:36:25;1.58;;;0.75;;
36709;SDS011;22694;51.040;3.684;2022-11-21T01:38:52;3.25;;;0.70;;
36709;SDS011;22694;51.040;3.684;2022-11-21T01:41:20;0.80;;;0.70;;
36709;SDS011;22694;51.040;3.684;2022-11-21T01:43:51;3.00;;;0.63;;
36709;SDS011;22694;51.040;3.684;2022-11-21T01:46:17;1.38;;;0.52;;
36709;SDS011;22694;51.040;3.684;2022-11-21T01:56:48;2.72;;;1.00;;
36709;SDS011;22694;51.040;3.684;2022-11-21T01:59:29;2.20;;;0.60;;
36709;SDS011;22694;51.040;3.684;2022-11-21T02:01:58;1.50;;;0.50;;
36709;SDS011;22694;51.040;3.684;2022-11-21T02:04:27;0.75;;;0.40;;
36709;SDS011;22694;51.040;3.684;2022-11-21T02:06:55;1.38;;;0.60;;
36709;SDS011;22694;51.040;3.684;2022-11-21T02:09:22;1.95;;;0.80;;
36709;SDS011;22694;51.040;3.684;2022-11-21T02:11:51;1.95;;;0.50;;
36709;SDS011;22694;51.040;3.684;2022-11-21T02:14:21;0.70;;;0.50;;
36709;SDS011;22694;51.040;3.684;2022-11-21T02:16:47;1.15;;;0.70;;
36709;SDS011;22694;51.040;3.684;2022-11-21T02:19:17;1.65;;;0.55;;
36709;SDS011;22694;51.040;3.684;2022-11-21T02:21:53;0.98;;;0.60;;
36709;SDS011;22694;51.040;3.684;2022-11-21T02:24:45;1.65;;;0.60;;
36709;SDS011;22694;51.040;3.684;2022-11-21T02:27:13;2.55;;;0.63;;
36709;SDS011;22694;51.040;3.684;2022-11-21T02:29:40;1.80;;;0.50;;
36709;SDS011;22694;51.040;3.684;2022-11-21T02:32:07;1.20;;;0.68;;
36709;SDS011;22694;51.040;3.684;2022-11-21T02:34:32;0.70;;;0.43;;
36709;SDS011;22694;51.040;3.684;2022-11-21T02:36:58;1.02;;;0.50;;
36709;SDS011;22694;51.040;3.684;2022-11-21T02:39:26;0.98;;;0.50;;
36709;SDS011;22694;51.040;3.684;2022-11-21T02:47:47;0.80;;;0.32;;
36709;SDS011;22694;51.040;3.684;2022-11-21T02:50:24;0.65;;;0.40;;
36709;SDS011;22694;51.040;3.684;2022-11-21T02:52:52;1.55;;;0.82;;
36709;SDS011;22694;51.040;3.684;2022-11-21T02:55:19;0.80;;;0.50;;
36709;SDS011;22694;51.040;3.684;2022-11-21T02:57:45;1.52;;;0.52;;
36709;SDS011;22694;51.040;3.684;2022-11-21T03:00:11;1.55;;;0.35;;
36709;SDS011;22694;51.040;3.684;2022-11-21T03:02:37;1.20;;;0.50;;
36709;SDS011;22694;51.040;3.684;2022-11-21T03:05:05;1.27;;;0.32;;
36709;SDS011;22694;51.040;3.684;2022-11-21T03:07:32;0.73;;;0.50;;
36709;SDS011;22694;51.040;3.684;2022-11-21T03:09:58;0.95;;;0.77;;
36709;SDS011;22694;51.040;3.684;2022-11-21T03:12:23;1.35;;;0.57;;
36709;SDS011;22694;51.040;3.684;2022-11-21T03:14:49;0.80;;;0.40;;
36709;SDS011;22694;51.040;3.684;2022-11-21T03:17:15;2.00;;;0.85;;
36709;SDS011;22694;51.040;3.684;2022-11-21T03:19:40;0.98;;;0.47;;
36709;SDS011;22694;51.040;3.684;2022-11-21T03:22:06;2.20;;;0.60;;
36709;SDS011;22694;51.040;3.684;2022-11-21T03:24:32;0.98;;;0.40;;
36709;SDS011;22694;51.040;3.684;2022-11-21T03:26:58;0.98;;;0.60;;
36709;SDS011;22694;51.040;3.684;2022-11-21T03:29:23;0.70;;;0.57;;
36709;SDS011;22694;51.040;3.684;2022-11-21T03:31:49;1.85;;;0.55;;
36709;SDS011;22694;51.040;3.684;2022-11-21T03:34:14;1.13;;;0.40;;
36709;SDS011;22694;51.040;3.684;2022-11-21T03:36:40;0.63;;;0.55;;
36709;SDS011;22694;51.040;3.684;2022-11-21T03:39:06;1.20;;;0.45;;
36709;SDS011;22694;51.040;3.684;2022-11-21T03:41:32;0.68;;;0.40;;
36709;SDS011;22694;51.040;3.684;2022-11-21T03:44:02;0.93;;;0.60;;
36709;SDS011;22694;51.040;3.684;2022-11-21T03:46:30;1.25;;;0.50;;
36709;SDS011;22694;51.040;3.684;2022-11-21T03:48:58;0.98;;;0.40;;
36709;SDS011;22694;51.040;3.684;2022-11-21T03:51:24;0.82;;;0.50;;
36709;SDS011;22694;51.040;3.684;2022-11-21T03:53:50;2.97;;;0.50;;
36709;SDS011;22694;51.040;3.684;2022-11-21T03:56:16;0.98;;;0.50;;
36709;SDS011;22694;51.040;3.684;2022-11-21T03:58:42;1.10;;;0.60;;
36709;SDS011;22694;51.040;3.684;2022-11-21T04:01:08;2.50;;;0.73;;
36709;SDS011;22694;51.040;3.684;2022-11-21T04:03:34;1.73;;;0.60;;
36709;SDS011;22694;51.040;3.684;2022-11-21T04:06:00;1.52;;;0.50;;
36709;SDS011;22694;51.040;3.684;2022-11-21T04:08:26;1.35;;;0.65;;
36709;SDS011;22694;51.040;3.684;2022-11-21T04:10:52;3.45;;;1.25;;
36709;SDS011;22694;51.040;3.684;2022-11-21T04:13:19;1.70;;;0.50;;
36709;SDS011;22694;51.040;3.684;2022-11-21T04:15:45;2.25;;;0.88;;
36709;SDS011;22694;51.040;3.684;2022-11-21T04:18:11;2.63;;;0.52;;
36709;SDS011;22694;51.040;3.684;2022-11-21T04:20:37;2.47;;;0.77;;
36709;SDS011;22694;51.040;3.684;2022-11-21T04:23:03;1.92;;;0.52;;
36709;SDS011;22694;51.040;3.684;2022-11-21T04:25:29;2.17;;;0.80;;
36709;SDS011;22694;51.040;3.684;2022-11-21T04:27:56;1.38;;;0.90;;
36709;SDS011;22694;51.040;3.684;2022-11-21T04:30:22;0.85;;;0.70;;
36709;SDS011;22694;51.040;3.684;2022-11-21T04:32:51;1.40;;;0.68;;
36709;SDS011;22694;51.040;3.684;2022-11-21T04:35:17;0.90;;;0.40;;
36709;SDS011;22694;51.040;3.684;2022-11-21T04:37:43;2.38;;;0.60;;
36709;SDS011;22694;51.040;3.684;2022-11-21T04:40:08;1.42;;;0.57;;
36709;SDS011;22694;51.040;3.684;2022-11-21T04:42:35;0.77;;;0.65;;
36709;SDS011;22694;51.040;3.684;2022-11-21T04:45:00;1.33;;;0.55;;
36709;SDS011;22694;51.040;3.684;2022-11-21T04:47:26;2.40;;;1.30;;
36709;SDS011;22694;51.040;3.684;2022-11-21T04:49:52;1.85;;;0.70;;
36709;SDS011;22694;51.040;3.684;2022-11-21T04:52:17;1.90;;;0.65;;
36709;SDS011;22694;51.040;3.684;2022-11-21T04:54:43;3.35;;;0.82;;
36709;SDS011;22694;51.040;3.684;2022-11-21T04:57:09;1.30;;;0.70;;
36709;SDS011;22694;51.040;3.684;2022-11-21T04:59:35;3.30;;;0.80;;
36709;SDS011;22694;51.040;3.684;2022-11-21T05:02:01;1.55;;;0.60;;
36709;SDS011;22694;51.040;3.684;2022-11-21T05:04:27;1.60;;;0.57;;
36709;SDS011;22694;51.040;3.684;2022-11-21T05:06:53;2.78;;;0.90;;
36709;SDS011;22694;51.040;3.684;2022-11-21T05:09:19;3.00;;;0.70;;
36709;SDS011;22694;51.040;3.684;2022-11-21T05:11:44;1.52;;;0.65;;
36709;SDS011;22694;51.040;3.684;2022-11-21T05:14:28;1.60;;;0.65;;
36709;SDS011;22694;51.040;3.684;2022-11-21T05:16:54;1.48;;;0.70;;
36709;SDS011;22694;51.040;3.684;2022-11-21T05:19:19;1.63;;;0.85;;
36709;SDS011;22694;51.040;3.684;2022-11-21T05:21:45;1.70;;;0.82;;
36709;SDS011;22694;51.040;3.684;2022-11-21T05:24:11;1.60;;;0.70;;
36709;SDS011;22694;51.040;3.684;2022-11-21T05:26:36;0.90;;;0.60;;
36709;SDS011;22694;51.040;3.684;2022-11-21T05:29:02;1.25;;;0.80;;
36709;SDS011;22694;51.040;3.684;2022-11-21T05:31:28;1.27;;;0.65;;
36709;SDS011;22694;51.040;3.684;2022-11-21T05:33:54;1.88;;;0.80;;
36709;SDS011;22694;51.040;3.684;2022-11-21T05:36:20;1.95;;;1.00;;
36709;SDS011;22694;51.040;3.684;2022-11-21T05:38:45;1.33;;;0.77;;
36709;SDS011;22694;51.040;3.684;2022-11-21T05:41:11;3.42;;;1.33;;
36709;SDS011;22694;51.040;3.684;2022-11-21T05:43:36;1.20;;;0.57;;
36709;SDS011;22694;51.040;3.684;2022-11-21T05:46:12;1.80;;;0.80;;
36709;SDS011;22694;51.040;3.684;2022-11-21T05:48:38;1.60;;;0.70;;
36709;SDS011;22694;51.040;3.684;2022-11-21T05:51:04;1.00;;;0.70;;
36709;SDS011;22694;51.040;3.684;2022-11-21T05:53:31;1.88;;;0.80;;
36709;SDS011;22694;51.040;3.684;2022-11-21T05:56:02;1.13;;;0.60;;
36709;SDS011;22694;51.040;3.684;2022-11-21T05:58:30;3.63;;;0.70;;
36709;SDS011;22694;51.040;3.684;2022-11-21T06:00:56;1.42;;;0.50;;
36709;SDS011;22694;51.040;3.684;2022-11-21T06:03:23;1.15;;;0.50;;
36709;SDS011;22694;51.040;3.684;2022-11-21T06:05:59;1.98;;;0.75;;
36709;SDS011;22694;51.040;3.684;2022-11-21T06:08:31;2.20;;;0.60;;
36709;SDS011;22694;51.040;3.684;2022-11-21T06:11:01;0.65;;;0.50;;
36709;SDS011;22694;51.040;3.684;2022-11-21T06:13:28;0.75;;;0.60;;
36709;SDS011;22694;51.040;3.684;2022-11-21T06:15:58;1.23;;;0.60;;
36709;SDS011;22694;51.040;3.684;2022-11-21T06:18:24;1.10;;;0.50;;
36709;SDS011;22694;51.040;3.684;2022-11-21T06:20:49;1.60;;;0.57;;
36709;SDS011;22694;51.040;3.684;2022-11-21T06:23:15;2.15;;;0.50;;
36709;SDS011;22694;51.040;3.684;2022-11-21T06:25:41;1.08;;;0.70;;
36709;SDS011;22694;51.040;3.684;2022-11-21T06:28:08;3.40;;;0.60;;
36709;SDS011;22694;51.040;3.684;2022-11-21T06:30:35;1.38;;;0.70;;
36709;SDS011;22694;51.040;3.684;2022-11-21T06:33:05;2.10;;;0.95;;
36709;SDS011;22694;51.040;3.684;2022-11-21T06:35:31;0.40;;;0.40;;
36709;SDS011;22694;51.040;3.684;2022-11-21T06:37:57;1.98;;;0.82;;
36709;SDS011;22694;51.040;3.684;2022-11-21T06:40:23;0.60;;;0.60;;
36709;SDS011;22694;51.040;3.684;2022-11-21T06:42:49;0.82;;;0.50;;
36709;SDS011;22694;51.040;3.684;2022-11-21T06:45:14;1.15;;;0.40;;
36709;SDS011;22694;51.040;3.684;2022-11-21T06:47:40;0.98;;;0.60;;
36709;SDS011;22694;51.040;3.684;2022-11-21T06:50:06;0.65;;;0.50;;
36709;SDS011;22694;51.040;3.684;2022-11-21T06:52:33;1.85;;;0.70;;
36709;SDS011;22694;51.040;3.684;2022-11-21T06:54:59;1.30;;;0.50;;
36709;SDS011;22694;51.040;3.684;2022-11-21T06:57:25;1.17;;;0.90;;
36709;SDS011;22694;51.040;3.684;2022-11-21T06:59:51;1.55;;;0.68;;
36709;SDS011;22694;51.040;3.684;2022-11-21T07:02:16;0.60;;;0.60;;
36709;SDS011;22694;51.040;3.684;2022-11-21T07:04:42;1.45;;;0.52;;
36709;SDS011;22694;51.040;3.684;2022-11-21T07:07:07;2.10;;;0.93;;
36709;SDS011;22694;51.040;3.684;2022-11-21T07:09:33;0.95;;;0.55;;
36709;SDS011;22694;51.040;3.684;2022-11-21T07:12:00;1.73;;;0.73;;
36709;SDS011;22694;51.040;3.684;2022-11-21T07:14:44;1.48;;;0.80;;
36709;SDS011;22694;51.040;3.684;2022-11-21T07:17:11;1.38;;;0.70;;
36709;SDS011;22694;51.040;3.684;2022-11-21T07:19:37;1.80;;;0.80;;
36709;SDS011;22694;51.040;3.684;2022-11-21T07:22:02;1.17;;;0.93;;
36709;SDS011;22694;51.040;3.684;2022-11-21T07:24:28;3.22;;;0.80;;
36709;SDS011;22694;51.040;3.684;2022-11-21T07:26:53;1.75;;;0.70;;
36709;SDS011;22694;51.040;3.684;2022-11-21T07:29:19;1.40;;;0.70;;
36709;SDS011;22694;51.040;3.684;2022-11-21T07:31:45;0.88;;;0.60;;
36709;SDS011;22694;51.040;3.684;2022-11-21T07:34:10;0.98;;;0.57;;
36709;SDS011;22694;51.040;3.684;2022-11-21T07:36:36;1.50;;;0.77;;
36709;SDS011;22694;51.040;3.684;2022-11-21T07:39:02;1.58;;;0.65;;
36709;SDS011;22694;51.040;3.684;2022-11-21T07:41:28;3.50;;;1.05;;
36709;SDS011;22694;51.040;3.684;2022-11-21T07:43:53;2.20;;;0.75;;
36709;SDS011;22694;51.040;3.684;2022-11-21T07:46:19;0.70;;;0.70;;
36709;SDS011;22694;51.040;3.684;2022-11-21T07:48:45;2.08;;;0.88;;
36709;SDS011;22694;51.040;3.684;2022-11-21T07:51:10;1.95;;;0.70;;
36709;SDS011;22694;51.040;3.684;2022-11-21T07:53:36;1.08;;;0.73;;
36709;SDS011;22694;51.040;3.684;2022-11-21T07:56:01;1.80;;;0.90;;
36709;SDS011;22694;51.040;3.684;2022-11-21T07:58:28;2.03;;;0.80;;
36709;SDS011;22694;51.040;3.684;2022-11-21T08:00:54;1.58;;;0.70;;
36709;SDS011;22694;51.040;3.684;2022-11-21T08:03:20;1.25;;;0.73;;
36709;SDS011;22694;51.040;3.684;2022-11-21T08:05:47;2.67;;;0.80;;
36709;SDS011;22694;51.040;3.684;2022-11-21T08:08:12;2.53;;;0.80;;
36709;SDS011;22694;51.040;3.684;2022-11-21T08:10:43;1.27;;;0.88;;
36709;SDS011;22694;51.040;3.684;2022-11-21T08:13:10;2.67;;;1.13;;
36709;SDS011;22694;51.040;3.684;2022-11-21T08:15:36;1.73;;;1.05;;
36709;SDS011;22694;51.040;3.684;2022-11-21T08:18:06;1.77;;;0.93;;
36709;SDS011;22694;51.040;3.684;2022-11-21T08:20:36;1.60;;;1.10;;
36709;SDS011;22694;51.040;3.684;2022-11-21T08:23:02;1.33;;;0.65;;
36709;SDS011;22694;51.040;3.684;2022-11-21T08:25:28;2.10;;;0.88;;
36709;SDS011;22694;51.040;3.684;2022-11-21T08:27:56;2.05;;;0.95;;
36709;SDS011;22694;51.040;3.684;2022-11-21T08:30:23;1.95;;;1.27;;
36709;SDS011;22694;51.040;3.684;2022-11-21T08:32:49;1.73;;;0.90;;
36709;SDS011;22694;51.040;3.684;2022-11-21T08:35:15;1.13;;;0.80;;
36709;SDS011;22694;51.040;3.684;2022-11-21T08:37:41;1.75;;;1.00;;
36709;SDS011;22694;51.040;3.684;2022-11-21T08:40:06;3.35;;;1.10;;
36709;SDS011;22694;51.040;3.684;2022-11-21T08:42:32;1.98;;;1.20;;
36709;SDS011;22694;51.040;3.684;2022-11-21T08:44:58;1.45;;;0.90;;
36709;SDS011;22694;51.040;3.684;2022-11-21T08:47:24;1.90;;;0.90;;
36709;SDS011;22694;51.040;3.684;2022-11-21T08:49:50;2.40;;;1.23;;
36709;SDS011;22694;51.040;3.684;2022-11-21T08:52:15;2.17;;;1.00;;
36709;SDS011;22694;51.040;3.684;2022-11-21T08:54:42;4.10;;;1.10;;
36709;SDS011;22694;51.040;3.684;2022-11-21T08:57:08;2.97;;;1.17;;
36709;SDS011;22694;51.040;3.684;2022-11-21T08:59:34;1.83;;;1.10;;
36709;SDS011;22694;51.040;3.684;2022-11-21T09:02:00;2.40;;;1.15;;
36709;SDS011;22694;51.040;3.684;2022-11-21T09:04:26;1.63;;;1.10;;
36709;SDS011;22694;51.040;3.684;2022-11-21T09:06:51;1.38;;;0.70;;
36709;SDS011;22694;51.040;3.684;2022-11-21T09:09:17;1.63;;;0.98;;
36709;SDS011;22694;51.040;3.684;2022-11-21T09:11:43;2.80;;;1.55;;
36709;SDS011;22694;51.040;3.684;2022-11-21T09:14:08;1.88;;;1.17;;
36709;SDS011;22694;51.040;3.684;2022-11-21T09:16:52;2.60;;;0.82;;
36709;SDS011;22694;51.040;3.684;2022-11-21T09:19:36;2.60;;;1.00;;
36709;SDS011;22694;51.040;3.684;2022-11-21T09:22:02;2.13;;;1.40;;
36709;SDS011;22694;51.040;3.684;2022-11-21T09:24:27;1.88;;;1.10;;
36709;SDS011;22694;51.040;3.684;2022-11-21T09:26:53;2.38;;;1.13;;
36709;SDS011;22694;51.040;3.684;2022-11-21T09:29:18;1.88;;;1.15;;
36709;SDS011;22694;51.040;3.684;2022-11-21T09:31:44;1.08;;;0.85;;
36709;SDS011;22694;51.040;3.684;2022-11-21T09:34:10;1.88;;;0.90;;
36709;SDS011;22694;51.040;3.684;2022-11-21T09:36:35;2.95;;;1.20;;
36709;SDS011;22694;51.040;3.684;2022-11-21T09:39:02;1.98;;;1.00;;
36709;SDS011;22694;51.040;3.684;2022-11-21T09:42:02;2.30;;;0.98;;
36709;SDS011;22694;51.040;3.684;2022-11-21T09:47:23;3.92;;;1.00;;
36709;SDS011;22694;51.040;3.684;2022-11-21T09:49:58;1.58;;;0.90;;
36709;SDS011;22694;51.040;3.684;2022-11-21T09:52:31;4.15;;;1.25;;
36709;SDS011;22694;51.040;3.684;2022-11-21T09:55:09;4.63;;;1.77;;
36709;SDS011;22694;51.040;3.684;2022-11-21T09:58:42;3.75;;;1.25;;
36709;SDS011;22694;51.040;3.684;2022-11-21T10:00:49;4.18;;;1.20;;
36709;SDS011;22694;51.040;3.684;2022-11-21T10:03:19;4.50;;;1.23;;
36709;SDS011;22694;51.040;3.684;2022-11-21T10:06:35;4.40;;;1.38;;
36709;SDS011;22694;51.040;3.684;2022-11-21T10:09:00;4.45;;;1.30;;
36709;SDS011;22694;51.040;3.684;2022-11-21T10:11:56;3.42;;;1.38;;
36709;SDS011;22694;51.040;3.684;2022-11-21T10:23:33;2.92;;;1.40;;
36709;SDS011;22694;51.040;3.684;2022-11-21T10:29:12;2.95;;;1.45;;
36709;SDS011;22694;51.040;3.684;2022-11-21T10:31:40;21.38;;;2.03;;
36709;SDS011;22694;51.040;3.684;2022-11-21T10:34:11;16.00;;;1.98;;
36709;SDS011;22694;51.040;3.684;2022-11-21T10:36:56;11.98;;;1.77;;
36709;SDS011;22694;51.040;3.684;2022-11-21T10:39:32;12.15;;;1.98;;
36709;SDS011;22694;51.040;3.684;2022-11-21T10:44:57;7.10;;;1.45;;
36709;SDS011;22694;51.040;3.684;2022-11-21T10:47:43;5.45;;;1.23;;
36709;SDS011;22694;51.040;3.684;2022-11-21T10:53:07;5.32;;;1.25;;
36709;SDS011;22694;51.040;3.684;2022-11-21T10:58:32;4.15;;;1.30;;
36709;SDS011;22694;51.040;3.684;2022-11-21T11:01:17;5.75;;;1.85;;
36709;SDS011;22694;51.040;3.684;2022-11-21T11:06:29;4.07;;;1.50;;
36709;SDS011;22694;51.040;3.684;2022-11-21T11:08:55;6.38;;;1.48;;
36709;SDS011;22694;51.040;3.684;2022-11-21T11:11:21;3.92;;;1.48;;
36709;SDS011;22694;51.040;3.684;2022-11-21T11:13:52;5.53;;;1.42;;
36709;SDS011;22694;51.040;3.684;2022-11-21T11:16:21;3.28;;;1.33;;
36709;SDS011;22694;51.040;3.684;2022-11-21T11:23:53;6.18;;;1.17;;
36709;SDS011;22694;51.040;3.684;2022-11-21T11:26:30;4.20;;;1.52;;
36709;SDS011;22694;51.040;3.684;2022-11-21T11:29:08;2.47;;;1.70;;
36709;SDS011;22694;51.040;3.684;2022-11-21T11:31:42;2.38;;;1.75;;
36709;SDS011;22694;51.040;3.684;2022-11-21T11:34:19;3.08;;;1.88;;
36709;SDS011;22694;51.040;3.684;2022-11-21T11:36:58;3.72;;;1.92;;
36709;SDS011;22694;51.040;3.684;2022-11-21T11:39:38;3.65;;;1.77;;
36709;SDS011;22694;51.040;3.684;2022-11-21T11:42:19;4.43;;;2.30;;
36709;SDS011;22694;51.040;3.684;2022-11-21T11:47:57;3.28;;;2.03;;
36709;SDS011;22694;51.040;3.684;2022-11-21T11:50:32;4.47;;;2.55;;
36709;SDS011;22694;51.040;3.684;2022-11-21T11:55:48;4.10;;;2.30;;
36709;SDS011;22694;51.040;3.684;2022-11-21T11:58:32;2.92;;;2.00;;
36709;SDS011;22694;51.040;3.684;2022-11-21T12:04:27;7.15;;;2.35;;
36709;SDS011;22694;51.040;3.684;2022-11-21T12:06:29;3.15;;;2.30;;
36709;SDS011;22694;51.040;3.684;2022-11-21T12:09:04;3.80;;;2.63;;
36709;SDS011;22694;51.040;3.684;2022-11-21T12:11:54;3.95;;;2.58;;
36709;SDS011;22694;51.040;3.684;2022-11-21T12:14:34;5.90;;;2.97;;
36709;SDS011;22694;51.040;3.684;2022-11-21T12:17:29;3.55;;;2.55;;
36709;SDS011;22694;51.040;3.684;2022-11-21T12:20:04;4.50;;;2.70;;
36709;SDS011;22694;51.040;3.684;2022-11-21T12:22:38;5.32;;;2.95;;
36709;SDS011;22694;51.040;3.684;2022-11-21T12:25:09;4.65;;;2.70;;
36709;SDS011;22694;51.040;3.684;2022-11-21T12:27:36;3.38;;;2.42;;
36709;SDS011;22694;51.040;3.684;2022-11-21T12:33:05;5.03;;;2.80;;
36709;SDS011;22694;51.040;3.684;2022-11-21T12:47:15;5.05;;;1.92;;
36709;SDS011;22694;51.040;3.684;2022-11-21T12:52:53;1.92;;;1.63;;
36709;SDS011;22694;51.040;3.684;2022-11-21T12:55:45;2.45;;;2.10;;
36709;SDS011;22694;51.040;3.684;2022-11-21T12:58:18;2.58;;;1.65;;
36709;SDS011;22694;51.040;3.684;2022-11-21T13:06:31;3.03;;;1.65;;
36709;SDS011;22694;51.040;3.684;2022-11-21T13:09:03;3.28;;;2.00;;
36709;SDS011;22694;51.040;3.684;2022-11-21T13:11:39;4.23;;;2.10;;
36709;SDS011;22694;51.040;3.684;2022-11-21T13:25:11;3.08;;;1.90;;
36709;SDS011;22694;51.040;3.684;2022-11-21T13:27:38;3.47;;;1.77;;
36709;SDS011;22694;51.040;3.684;2022-11-21T13:35:01;2.95;;;2.00;;
36709;SDS011;22694;51.040;3.684;2022-11-21T13:45:44;9.50;;;3.05;;
36709;SDS011;22694;51.040;3.684;2022-11-21T13:58:59;5.90;;;2.17;;
36709;SDS011;22694;51.040;3.684;2022-11-21T14:04:31;4.78;;;2.65;;
36709;SDS011;22694;51.040;3.684;2022-11-21T14:07:23;4.80;;;2.28;;
36709;SDS011;22694;51.040;3.684;2022-11-21T14:10:01;4.68;;;2.20;;
36709;SDS011;22694;51.040;3.684;2022-11-21T14:12:41;5.20;;;2.15;;
36709;SDS011;22694;51.040;3.684;2022-11-21T14:17:52;6.20;;;2.30;;
36709;SDS011;22694;51.040;3.684;2022-11-21T14:20:24;6.38;;;2.22;;
36709;SDS011;22694;51.040;3.684;2022-11-21T14:23:15;5.60;;;2.63;;
36709;SDS011;22694;51.040;3.684;2022-11-21T14:25:49;7.03;;;2.72;;
36709;SDS011;22694;51.040;3.684;2022-11-21T14:28:29;5.03;;;2.22;;
36709;SDS011;22694;51.040;3.684;2022-11-21T14:30:57;5.13;;;2.25;;
36709;SDS011;22694;51.040;3.684;2022-11-21T14:33:25;3.92;;;2.28;;
36709;SDS011;22694;51.040;3.684;2022-11-21T14:35:52;4.57;;;2.00;;
36709;SDS011;22694;51.040;3.684;2022-11-21T14:38:22;4.97;;;2.33;;
36709;SDS011;22694;51.040;3.684;2022-11-21T14:40:48;4.43;;;2.33;;
36709;SDS011;22694;51.040;3.684;2022-11-21T14:43:31;3.22;;;2.00;;
36709;SDS011;22694;51.040;3.684;2022-11-21T14:45:57;4.38;;;2.33;;
36709;SDS011;22694;51.040;3.684;2022-11-21T14:48:24;4.22;;;1.77;;
36709;SDS011;22694;51.040;3.684;2022-11-21T14:50:51;4.57;;;2.00;;
36709;SDS011;22694;51.040;3.684;2022-11-21T14:53:19;5.32;;;2.13;;
36709;SDS011;22694;51.040;3.684;2022-11-21T14:55:48;3.95;;;2.30;;
36709;SDS011;22694;51.040;3.684;2022-11-21T14:58:17;4.80;;;2.10;;
36709;SDS011;22694;51.040;3.684;2022-11-21T15:01:01;5.15;;;2.25;;
36709;SDS011;22694;51.040;3.684;2022-11-21T15:04:04;3.65;;;2.10;;
36709;SDS011;22694;51.040;3.684;2022-11-21T15:06:39;4.85;;;2.10;;
36709;SDS011;22694;51.040;3.684;2022-11-21T15:09:10;6.60;;;2.28;;
36709;SDS011;22694;51.040;3.684;2022-11-21T15:14:32;2.80;;;1.80;;
36709;SDS011;22694;51.040;3.684;2022-11-21T15:17:02;3.00;;;1.77;;
36709;SDS011;22694;51.040;3.684;2022-11-21T15:19:32;4.28;;;2.17;;
36709;SDS011;22694;51.040;3.684;2022-11-21T15:21:59;4.43;;;1.77;;
36709;SDS011;22694;51.040;3.684;2022-11-21T15:24:29;4.30;;;1.88;;
36709;SDS011;22694;51.040;3.684;2022-11-21T15:35:54;3.28;;;1.58;;
36709;SDS011;22694;51.040;3.684;2022-11-21T15:38:25;4.85;;;1.55;;
36709;SDS011;22694;51.040;3.684;2022-11-21T15:46:04;6.20;;;1.88;;
36709;SDS011;22694;51.040;3.684;2022-11-21T15:48:56;3.72;;;2.03;;
36709;SDS011;22694;51.040;3.684;2022-11-21T15:51:29;2.08;;;1.30;;
36709;SDS011;22694;51.040;3.684;2022-11-21T15:53:57;4.13;;;2.17;;
36709;SDS011;22694;51.040;3.684;2022-11-21T15:56:22;2.83;;;1.73;;
36709;SDS011;22694;51.040;3.684;2022-11-21T15:58:48;5.03;;;1.52;;
36709;SDS011;22694;51.040;3.684;2022-11-21T16:01:14;4.47;;;1.88;;
36709;SDS011;22694;51.040;3.684;2022-11-21T16:03:49;3.95;;;1.60;;
36709;SDS011;22694;51.040;3.684;2022-11-21T16:06:16;3.42;;;1.50;;
36709;SDS011;22694;51.040;3.684;2022-11-21T16:08:43;4.35;;;1.80;;
36709;SDS011;22694;51.040;3.684;2022-11-21T16:11:15;4.45;;;1.52;;
36709;SDS011;22694;51.040;3.684;2022-11-21T16:13:54;3.03;;;1.42;;
36709;SDS011;22694;51.040;3.684;2022-11-21T16:16:21;4.45;;;1.75;;
36709;SDS011;22694;51.040;3.684;2022-11-21T16:18:48;3.50;;;1.60;;
36709;SDS011;22694;51.040;3.684;2022-11-21T16:21:14;2.92;;;1.38;;
36709;SDS011;22694;51.040;3.684;2022-11-21T16:23:40;3.63;;;1.10;;
36709;SDS011;22694;51.040;3.684;2022-11-21T16:26:06;3.30;;;1.38;;
36709;SDS011;22694;51.040;3.684;2022-11-21T16:28:33;3.22;;;1.50;;
36709;SDS011;22694;51.040;3.684;2022-11-21T16:30:59;3.50;;;1.40;;
36709;SDS011;22694;51.040;3.684;2022-11-21T16:33:26;1.77;;;1.23;;
36709;SDS011;22694;51.040;3.684;2022-11-21T16:35:52;2.72;;;1.33;;
36709;SDS011;22694;51.040;3.684;2022-11-21T16:38:25;2.55;;;1.48;;
36709;SDS011;22694;51.040;3.684;2022-11-21T16:40:55;3.55;;;1.60;;
36709;SDS011;22694;51.040;3.684;2022-11-21T16:43:25;3.92;;;1.38;;
36709;SDS011;22694;51.040;3.684;2022-11-21T16:45:53;2.97;;;1.30;;
36709;SDS011;22694;51.040;3.684;2022-11-21T16:48:19;3.67;;;1.08;;
36709;SDS011;22694;51.040;3.684;2022-11-21T16:50:46;3.67;;;1.35;;
36709;SDS011;22694;51.040;3.684;2022-11-21T16:53:12;2.25;;;1.25;;
36709;SDS011;22694;51.040;3.684;2022-11-21T16:55:38;3.35;;;1.15;;
36709;SDS011;22694;51.040;3.684;2022-11-21T16:58:04;2.60;;;1.48;;
36709;SDS011;22694;51.040;3.684;2022-11-21T17:00:30;3.20;;;1.30;;
36709;SDS011;22694;51.040;3.684;2022-11-21T17:02:56;2.38;;;1.08;;
36709;SDS011;22694;51.040;3.684;2022-11-21T17:05:22;2.65;;;1.38;;
36709;SDS011;22694;51.040;3.684;2022-11-21T17:07:48;2.35;;;1.17;;
36709;SDS011;22694;51.040;3.684;2022-11-21T17:10:13;5.30;;;1.08;;
36709;SDS011;22694;51.040;3.684;2022-11-21T17:12:40;2.90;;;1.00;;
36709;SDS011;22694;51.040;3.684;2022-11-21T17:15:08;2.58;;;1.20;;